Time;durP1;ratioP1;P1;durP2;ratioP2;P2;SDS_P1;SDS_P2;PMS_P1;PMS_P2;Temp;Humidity;BMP_temperature;BMP_pressure;BME280_temperature;BME280_humidity;BME280_pressure;Samples;Min_cycle;Max_cycle;Signal;HPM_P1;HPM_P2
2022/09/17 00:02:16;;;;;;;3.83;2.95;;;19.80;55.70;;;;;;5070150;28;45278;-72
2022/09/17 00:04:43;;;;;;;4.53;3.03;;;19.80;55.70;;;;;;5070568;28;45371;-72
2022/09/17 00:07:09;;;;;;;5.07;2.78;;;19.70;55.60;;;;;;5069963;28;45181;-74
2022/09/17 00:09:36;;;;;;;3.95;3.00;;;19.70;55.60;;;;;;5069270;28;45489;-72
2022/09/17 00:12:03;;;;;;;4.47;3.20;;;19.80;55.60;;;;;;5059976;28;45202;-72
2022/09/17 00:14:32;;;;;;;5.13;3.03;;;19.70;55.60;;;;;;5049521;28;45289;-73
2022/09/17 00:16:58;;;;;;;5.57;3.25;;;19.70;55.60;;;;;;5049747;28;45303;-72
2022/09/17 00:19:25;;;;;;;4.55;2.90;;;19.70;55.60;;;;;;5049157;28;46403;-72
2022/09/17 00:21:52;;;;;;;4.72;2.97;;;19.70;55.70;;;;;;5049301;28;45293;-73
2022/09/17 00:24:19;;;;;;;5.60;3.17;;;19.70;56.30;;;;;;5049315;28;45278;-72
2022/09/17 00:26:46;;;;;;;3.65;2.80;;;19.60;55.60;;;;;;5049568;28;45362;-73
2022/09/17 00:29:13;;;;;;;5.80;3.30;;;19.60;55.60;;;;;;5048966;28;45356;-73
2022/09/17 00:31:41;;;;;;;4.55;2.85;;;19.60;55.60;;;;;;5048320;28;45187;-73
2022/09/17 00:34:08;;;;;;;4.72;2.92;;;19.60;55.70;;;;;;5049164;28;45220;-72
2022/09/17 00:36:35;;;;;;;4.80;2.63;;;19.60;55.70;;;;;;5049242;28;45397;-72
2022/09/17 00:39:02;;;;;;;6.05;3.15;;;19.60;55.70;;;;;;5048796;28;45468;-73
2022/09/17 00:41:31;;;;;;;4.78;3.38;;;19.60;55.70;;;;;;5048912;28;45380;-73
2022/09/17 00:43:59;;;;;;;5.00;2.90;;;19.60;55.70;;;;;;5049153;28;45171;-72
2022/09/17 00:46:31;;;;;;;3.92;2.90;;;19.60;55.70;;;;;;5049174;28;45214;-73
2022/09/17 00:49:01;;;;;;;4.28;2.92;;;19.60;55.60;;;;;;5048631;28;46280;-73
2022/09/17 00:51:29;;;;;;;4.57;2.67;;;19.60;55.60;;;;;;5048968;28;45241;-73
2022/09/17 00:53:56;;;;;;;3.47;2.70;;;19.60;55.70;;;;;;5048789;28;45239;-73
2022/09/17 00:56:23;;;;;;;4.20;2.67;;;19.60;55.60;;;;;;5060575;28;45464;-74
2022/09/17 00:58:50;;;;;;;3.92;2.80;;;19.60;55.70;;;;;;5068711;28;46393;-73
2022/09/17 01:01:18;;;;;;;3.08;2.63;;;19.60;56.20;;;;;;5068731;28;45300;-73
2022/09/17 01:03:44;;;;;;;4.10;2.90;;;19.60;55.60;;;;;;5068806;28;45254;-72
2022/09/17 01:06:16;;;;;;;4.47;2.42;;;19.50;56.10;;;;;;5068884;28;45407;-73
2022/09/17 01:08:49;;;;;;;4.57;3.17;;;19.50;55.50;;;;;;5068492;28;47538;-73
2022/09/17 01:11:28;;;;;;;3.60;2.67;;;19.50;55.60;;;;;;5065362;28;45456;-73
2022/09/17 01:14:03;;;;;;;3.75;2.78;;;19.50;55.60;;;;;;5048477;28;45230;-73
2022/09/17 01:16:33;;;;;;;4.40;2.67;;;19.50;55.60;;;;;;5048534;28;45419;-72
2022/09/17 01:19:07;;;;;;;4.13;2.90;;;19.50;56.20;;;;;;5048020;28;45412;-72
2022/09/17 01:21:46;;;;;;;4.00;2.60;;;19.50;55.60;;;;;;5048215;28;45194;-72
2022/09/17 01:24:23;;;;;;;3.78;2.72;;;19.40;55.50;;;;;;5048370;28;45230;-72
2022/09/17 01:27:21;;;;;;;3.88;2.55;;;19.50;55.60;;;;;;5048494;28;45198;-72
2022/09/17 01:30:00;;;;;;;3.65;2.60;;;19.40;55.50;;;;;;4997951;28;47066;-72
2022/09/17 01:32:29;;;;;;;4.25;2.70;;;19.40;55.50;;;;;;5048151;28;45424;-72
2022/09/17 01:34:58;;;;;;;4.05;2.72;;;19.40;55.50;;;;;;5050649;28;45327;-72
2022/09/17 01:37:29;;;;;;;4.28;2.80;;;19.40;55.50;;;;;;5068947;28;45473;-72
2022/09/17 01:39:59;;;;;;;3.83;2.60;;;19.40;55.50;;;;;;5068155;28;47310;-72
2022/09/17 01:42:30;;;;;;;3.08;2.20;;;19.40;55.50;;;;;;5067978;28;45327;-72
2022/09/17 01:45:00;;;;;;;4.38;2.70;;;19.40;55.50;;;;;;5068186;28;45537;-72
2022/09/17 01:47:29;;;;;;;3.75;2.45;;;19.40;55.50;;;;;;5068259;28;45285;-72
2022/09/17 01:49:59;;;;;;;3.13;2.05;;;19.40;55.50;;;;;;5067767;28;45358;-73
2022/09/17 01:52:26;;;;;;;2.90;2.25;;;19.40;55.50;;;;;;5067863;28;45357;-73
2022/09/17 01:54:54;;;;;;;4.43;2.45;;;19.40;55.50;;;;;;5067904;28;45296;-71
2022/09/17 01:57:25;;;;;;;3.33;2.30;;;19.40;55.50;;;;;;5046995;28;45211;-73
2022/09/17 01:59:54;;;;;;;5.20;3.08;;;19.30;56.00;;;;;;5047304;28;45496;-72
2022/09/17 02:02:23;;;;;;;3.70;2.83;;;19.30;55.50;;;;;;5047553;28;45279;-72
2022/09/17 02:04:54;;;;;;;4.18;3.10;;;19.30;55.50;;;;;;5047925;28;45206;-72
2022/09/17 02:07:21;;;;;;;4.40;3.08;;;19.30;55.50;;;;;;5047836;28;45495;-73
2022/09/17 02:09:50;;;;;;;3.88;2.78;;;19.30;55.50;;;;;;5047008;28;46676;-72
2022/09/17 02:12:19;;;;;;;5.03;2.90;;;19.30;55.50;;;;;;5047298;28;45307;-72
2022/09/17 02:14:48;;;;;;;5.32;3.10;;;19.30;55.50;;;;;;5047540;28;45305;-72
2022/09/17 02:17:16;;;;;;;5.50;3.53;;;19.30;55.50;;;;;;5047615;28;45452;-72
2022/09/17 02:19:44;;;;;;;4.78;3.22;;;19.20;55.50;;;;;;5047228;28;45480;-72
2022/09/17 02:22:16;;;;;;;4.47;2.80;;;19.20;55.50;;;;;;5047342;28;45312;-72
2022/09/17 02:24:46;;;;;;;4.38;2.97;;;19.20;55.50;;;;;;5047423;28;45227;-72
2022/09/17 02:27:17;;;;;;;4.40;3.22;;;19.20;55.50;;;;;;5047541;28;45275;-72
2022/09/17 02:29:44;;;;;;;4.22;3.38;;;19.20;55.50;;;;;;5047023;28;45341;-72
2022/09/17 02:32:11;;;;;;;4.07;3.00;;;19.20;56.20;;;;;;5047058;28;45427;-72
2022/09/17 02:34:38;;;;;;;4.85;3.17;;;19.20;55.50;;;;;;5047258;28;45282;-72
2022/09/17 02:37:05;;;;;;;6.20;3.55;;;19.20;55.50;;;;;;5047446;28;45120;-72
2022/09/17 02:39:33;;;;;;;5.03;2.80;;;19.20;55.60;;;;;;5047052;28;45301;-72
2022/09/17 02:42:05;;;;;;;4.35;2.78;;;19.20;55.50;;;;;;5046909;28;45241;-72
2022/09/17 02:44:36;;;;;;;5.57;3.00;;;19.10;55.50;;;;;;5047109;28;45292;-73
2022/09/17 02:47:19;;;;;;;3.67;2.70;;;19.20;55.50;;;;;;5047200;28;45230;-73
2022/09/17 02:50:02;;;;;;;5.15;2.90;;;19.10;56.10;;;;;;5046738;28;45424;-73
2022/09/17 02:52:34;;;;;;;5.35;3.00;;;19.20;55.50;;;;;;5046702;28;45233;-72
2022/09/17 02:55:05;;;;;;;4.78;3.10;;;19.20;55.50;;;;;;5046777;28;45242;-72
2022/09/17 02:57:34;;;;;;;4.53;2.55;;;19.20;55.50;;;;;;5047077;28;45488;-72
2022/09/17 03:00:06;;;;;;;5.57;3.15;;;19.10;55.40;;;;;;5046607;28;46499;-73
2022/09/17 03:02:35;;;;;;;5.22;3.28;;;19.20;55.50;;;;;;5046919;28;45253;-72
2022/09/17 03:05:02;;;;;;;4.78;2.95;;;19.10;55.50;;;;;;5046874;28;45341;-71
2022/09/17 03:07:29;;;;;;;4.07;2.83;;;19.10;55.50;;;;;;5046211;28;45536;-72
2022/09/17 03:09:56;;;;;;;4.00;2.58;;;19.10;55.50;;;;;;5045156;28;46314;-72
2022/09/17 03:12:25;;;;;;;3.88;2.63;;;19.10;55.50;;;;;;5046382;28;45248;-73
2022/09/17 03:14:52;;;;;;;4.28;2.50;;;19.10;55.50;;;;;;5046864;28;45198;-72
2022/09/17 03:17:19;;;;;;;4.22;2.58;;;19.10;55.50;;;;;;5046765;28;45291;-73
2022/09/17 03:19:46;;;;;;;4.00;2.30;;;19.10;56.10;;;;;;5046393;28;45289;-73
2022/09/17 03:22:12;;;;;;;4.22;2.80;;;19.10;55.50;;;;;;5046351;28;45203;-73
2022/09/17 03:24:39;;;;;;;3.88;2.38;;;19.10;55.50;;;;;;5046522;28;45225;-72
2022/09/17 03:27:06;;;;;;;4.45;2.60;;;19.10;55.50;;;;;;5046698;28;45187;-71
2022/09/17 03:29:34;;;;;;;3.17;2.30;;;19.10;55.40;;;;;;5046168;28;46356;-71
2022/09/17 03:32:02;;;;;;;5.63;2.70;;;19.10;55.40;;;;;;5046278;28;45311;-73
2022/09/17 03:34:28;;;;;;;3.08;2.40;;;19.00;55.40;;;;;;5046505;28;45210;-73
2022/09/17 03:36:55;;;;;;;4.07;2.42;;;19.10;55.50;;;;;;5046419;28;45400;-73
2022/09/17 03:39:22;;;;;;;3.92;2.30;;;19.10;55.50;;;;;;5046149;28;45514;-72
2022/09/17 03:41:50;;;;;;;4.47;2.40;;;19.00;55.40;;;;;;5046171;28;45317;-71
2022/09/17 03:44:18;;;;;;;2.90;2.40;;;19.00;55.50;;;;;;5046338;28;45258;-72
2022/09/17 03:46:46;;;;;;;3.22;2.10;;;19.00;55.40;;;;;;5046446;28;45175;-73
2022/09/17 03:49:13;;;;;;;2.95;2.20;;;19.00;55.50;;;;;;5046011;28;46745;-72
2022/09/17 03:51:39;;;;;;;3.28;2.30;;;19.00;55.50;;;;;;5045335;28;45342;-73
2022/09/17 03:54:06;;;;;;;3.80;2.60;;;19.00;55.40;;;;;;5045953;28;45312;-72
2022/09/17 03:56:33;;;;;;;4.00;2.15;;;19.00;55.40;;;;;;5059239;28;45551;-72
2022/09/17 03:59:00;;;;;;;2.90;2.10;;;19.00;55.40;;;;;;5066182;28;45277;-73
2022/09/17 04:01:27;;;;;;;3.20;2.08;;;19.00;55.90;;;;;;5066033;28;45269;-73
2022/09/17 04:03:55;;;;;;;2.78;1.92;;;19.00;55.40;;;;;;5066337;28;45448;-72
2022/09/17 04:06:22;;;;;;;3.85;2.10;;;19.00;55.40;;;;;;5066436;28;45310;-72
2022/09/17 04:08:49;;;;;;;3.55;2.20;;;19.00;55.40;;;;;;5065967;28;46396;-72
2022/09/17 04:11:16;;;;;;;2.95;2.25;;;18.90;55.40;;;;;;5062885;28;45190;-72
2022/09/17 04:13:43;;;;;;;3.85;2.33;;;19.00;55.50;;;;;;5045943;28;45219;-73
2022/09/17 04:16:10;;;;;;;2.75;1.90;;;19.00;55.40;;;;;;5046026;28;45411;-72
2022/09/17 04:18:36;;;;;;;3.85;2.13;;;18.90;55.40;;;;;;5045738;28;45515;-73
2022/09/17 04:21:11;;;;;;;2.53;1.80;;;18.90;55.40;;;;;;5047785;28;45322;-73
2022/09/17 04:23:38;;;;;;;3.15;2.17;;;18.90;55.40;;;;;;5052147;28;45311;-73
2022/09/17 04:26:05;;;;;;;2.58;1.92;;;18.90;55.40;;;;;;5049612;28;45395;-73
2022/09/17 04:28:32;;;;;;;2.78;1.80;;;18.90;55.50;;;;;;5048985;28;45199;-73
2022/09/17 04:30:58;;;;;;;2.55;1.80;;;18.90;55.40;;;;;;5049087;28;45287;-73
2022/09/17 04:33:25;;;;;;;2.30;1.65;;;18.90;55.40;;;;;;5049176;28;45448;-73
2022/09/17 04:35:52;;;;;;;3.08;1.98;;;18.90;55.50;;;;;;5059730;28;45336;-72
2022/09/17 04:38:21;;;;;;;2.15;1.58;;;18.90;55.50;;;;;;5070904;28;46421;-73
2022/09/17 04:40:48;;;;;;;2.05;1.60;;;18.90;55.50;;;;;;5069438;28;45206;-73
2022/09/17 04:43:14;;;;;;;1.92;1.48;;;18.90;55.40;;;;;;5069681;28;45357;-73
2022/09/17 04:45:41;;;;;;;2.38;1.50;;;18.90;55.50;;;;;;5069368;28;45304;-73
2022/09/17 04:48:08;;;;;;;2.35;1.70;;;18.80;55.50;;;;;;5069075;28;46295;-73
2022/09/17 04:50:35;;;;;;;2.55;1.50;;;18.80;55.50;;;;;;5068974;28;45234;-73
2022/09/17 04:53:02;;;;;;;2.08;1.58;;;18.90;55.50;;;;;;5069184;28;45214;-73
2022/09/17 04:55:30;;;;;;;2.33;1.38;;;18.90;55.50;;;;;;5065025;28;45526;-73
2022/09/17 04:57:57;;;;;;;2.55;1.60;;;18.90;55.50;;;;;;5048540;28;46835;-73
2022/09/17 05:00:24;;;;;;;2.90;1.63;;;18.90;55.50;;;;;;5048745;28;45175;-73
2022/09/17 05:02:52;;;;;;;1.83;1.50;;;18.90;55.50;;;;;;5048580;28;45238;-73
2022/09/17 05:05:19;;;;;;;2.60;1.90;;;18.90;55.40;;;;;;5048969;28;45184;-73
2022/09/17 05:07:46;;;;;;;1.45;1.27;;;18.90;55.40;;;;;;5048432;28;46385;-73
2022/09/17 05:10:13;;;;;;;2.50;1.40;;;18.80;55.40;;;;;;5048110;28;45318;-73
2022/09/17 05:12:41;;;;;;;1.63;1.38;;;18.90;55.40;;;;;;5048498;28;45319;-73
2022/09/17 05:15:09;;;;;;;1.70;1.30;;;18.90;55.40;;;;;;5048865;28;45124;-73
2022/09/17 05:17:35;;;;;;;1.58;1.27;;;18.80;55.40;;;;;;5048177;28;46454;-73
2022/09/17 05:20:02;;;;;;;2.28;1.50;;;18.90;55.40;;;;;;5048550;28;45492;-72
2022/09/17 05:22:29;;;;;;;1.50;1.10;;;18.80;55.40;;;;;;5047624;28;45227;-72
2022/09/17 05:24:56;;;;;;;1.55;1.45;;;18.80;55.40;;;;;;5048586;28;45111;-72
2022/09/17 05:27:23;;;;;;;1.92;1.30;;;18.80;55.60;;;;;;5048101;28;46679;-73
2022/09/17 05:29:51;;;;;;;1.55;1.33;;;18.80;55.60;;;;;;5045575;28;45376;-73
2022/09/17 05:32:18;;;;;;;1.25;1.15;;;18.80;55.50;;;;;;5047522;28;45313;-72
2022/09/17 05:34:45;;;;;;;1.40;1.25;;;18.80;55.50;;;;;;5048337;28;45405;-73
2022/09/17 05:37:12;;;;;;;2.22;1.10;;;18.80;55.50;;;;;;5047939;28;45221;-73
2022/09/17 05:39:39;;;;;;;2.55;1.50;;;18.80;56.00;;;;;;5047948;28;45292;-73
2022/09/17 05:42:06;;;;;;;1.75;1.20;;;18.80;55.50;;;;;;5047991;28;45369;-73
2022/09/17 05:44:33;;;;;;;1.70;1.23;;;18.80;55.50;;;;;;5048128;28;45438;-73
2022/09/17 05:47:01;;;;;;;1.27;1.15;;;18.80;55.50;;;;;;5047801;28;45218;-73
2022/09/17 05:49:28;;;;;;;1.40;1.23;;;18.80;55.60;;;;;;5047713;28;45194;-73
2022/09/17 05:51:55;;;;;;;1.08;0.98;;;18.80;55.50;;;;;;5048090;28;45245;-73
2022/09/17 05:54:22;;;;;;;1.77;1.17;;;18.80;55.60;;;;;;5047739;28;45273;-73
2022/09/17 05:56:49;;;;;;;1.10;1.00;;;18.70;55.50;;;;;;5062811;28;46511;-73
2022/09/17 05:59:16;;;;;;;1.25;1.13;;;18.80;55.50;;;;;;5068091;28;45222;-73
2022/09/17 06:01:43;;;;;;;1.45;1.13;;;18.70;55.50;;;;;;5068008;28;45205;-73
2022/09/17 06:04:11;;;;;;;1.65;1.35;;;18.70;55.50;;;;;;5067821;28;45435;-73
2022/09/17 06:06:40;;;;;;;2.42;1.38;;;18.70;55.50;;;;;;5066948;28;45245;-73
2022/09/17 06:09:07;;;;;;;1.30;1.10;;;18.70;55.50;;;;;;5067639;28;45198;-73
2022/09/17 06:11:34;;;;;;;1.42;1.33;;;18.70;55.50;;;;;;5062275;28;45192;-73
2022/09/17 06:14:01;;;;;;;1.08;0.93;;;18.70;55.50;;;;;;5047799;28;45337;-73
2022/09/17 06:16:28;;;;;;;1.27;1.15;;;18.70;55.50;;;;;;5047193;28;45355;-73
2022/09/17 06:18:54;;;;;;;1.20;1.10;;;18.80;55.50;;;;;;5047329;28;45348;-73
2022/09/17 06:21:23;;;;;;;1.20;1.10;;;18.70;56.10;;;;;;5047389;28;45314;-73
2022/09/17 06:23:49;;;;;;;1.45;1.30;;;18.70;55.50;;;;;;5047600;28;45170;-73
2022/09/17 06:26:16;;;;;;;1.48;1.25;;;18.70;55.50;;;;;;5047238;28;46708;-73
2022/09/17 06:28:43;;;;;;;1.25;1.00;;;18.70;55.50;;;;;;5047225;28;45503;-73
2022/09/17 06:31:11;;;;;;;1.25;0.93;;;18.70;55.50;;;;;;5047635;28;45284;-73
2022/09/17 06:33:38;;;;;;;1.10;0.88;;;18.70;56.10;;;;;;5047366;28;45321;-73
2022/09/17 06:36:06;;;;;;;1.33;1.10;;;18.70;55.40;;;;;;5058812;28;45360;-73
2022/09/17 06:38:35;;;;;;;1.17;1.08;;;18.80;55.50;;;;;;5067290;28;45345;-73
2022/09/17 06:41:02;;;;;;;1.48;1.20;;;18.80;55.40;;;;;;5067357;28;45215;-73
2022/09/17 06:43:29;;;;;;;0.93;0.90;;;18.80;55.50;;;;;;5067387;28;45200;-73
2022/09/17 06:45:57;;;;;;;1.13;1.02;;;18.80;55.40;;;;;;5067137;28;47341;-73
2022/09/17 06:48:23;;;;;;;1.70;1.10;;;18.80;55.40;;;;;;5067134;28;45412;-72
2022/09/17 06:50:53;;;;;;;1.15;1.00;;;18.70;55.40;;;;;;5066624;28;45174;-71
2022/09/17 06:53:20;;;;;;;1.38;1.00;;;18.80;55.40;;;;;;5066957;28;45374;-73
2022/09/17 06:55:48;;;;;;;1.83;0.98;;;18.80;55.40;;;;;;5060319;28;45388;-73
2022/09/17 06:58:15;;;;;;;1.23;1.20;;;18.80;55.40;;;;;;5046842;28;45345;-73
2022/09/17 07:00:41;;;;;;;0.88;0.77;;;18.80;55.40;;;;;;5046975;28;45244;-73
2022/09/17 07:03:09;;;;;;;1.13;1.00;;;18.80;55.30;;;;;;5046926;28;45469;-73
2022/09/17 07:05:35;;;;;;;1.77;0.80;;;18.80;55.30;;;;;;5046543;28;46379;-73
2022/09/17 07:08:03;;;;;;;1.00;0.90;;;18.80;55.30;;;;;;5046637;28;45351;-73
2022/09/17 07:10:30;;;;;;;1.27;1.02;;;18.80;55.30;;;;;;5046543;28;45366;-73
2022/09/17 07:12:58;;;;;;;1.48;1.10;;;18.80;55.40;;;;;;5046706;28;45405;-73
2022/09/17 07:15:25;;;;;;;1.27;1.00;;;18.80;55.40;;;;;;5046658;28;46102;-73
2022/09/17 07:17:52;;;;;;;1.48;0.93;;;18.80;55.40;;;;;;5046503;28;45368;-73
2022/09/17 07:20:19;;;;;;;0.90;0.90;;;18.80;55.50;;;;;;5046730;28;45326;-73
2022/09/17 07:22:45;;;;;;;0.80;0.80;;;18.70;55.50;;;;;;5046770;28;45246;-73
2022/09/17 07:25:14;;;;;;;1.30;0.90;;;18.70;55.60;;;;;;5046197;28;46417;-73
2022/09/17 07:27:41;;;;;;;1.23;0.82;;;18.70;55.60;;;;;;5046559;28;45319;-73
2022/09/17 07:30:11;;;;;;;1.15;1.05;;;18.70;55.70;;;;;;5046643;28;45456;-73
2022/09/17 07:32:38;;;;;;;0.88;0.88;;;18.60;55.70;;;;;;5046676;28;45403;-73
2022/09/17 07:35:06;;;;;;;0.90;0.90;;;18.70;55.80;;;;;;5045962;28;46743;-73
2022/09/17 07:37:33;;;;;;;0.73;0.73;;;18.70;55.90;;;;;;5045592;28;45358;-73
2022/09/17 07:39:59;;;;;;;1.00;1.00;;;18.60;55.80;;;;;;5046437;28;45430;-73
2022/09/17 07:42:27;;;;;;;0.88;0.88;;;18.70;55.80;;;;;;5046505;28;45293;-73
2022/09/17 07:44:54;;;;;;;2.65;0.90;;;18.70;55.80;;;;;;5046124;28;47002;-73
2022/09/17 07:47:22;;;;;;;0.90;0.90;;;18.70;55.60;;;;;;5046138;28;45319;-73
2022/09/17 07:49:49;;;;;;;1.20;0.88;;;18.70;55.50;;;;;;5046272;28;45421;-73
2022/09/17 07:52:16;;;;;;;0.70;0.60;;;18.80;56.10;;;;;;5046371;28;45248;-73
2022/09/17 07:54:42;;;;;;;0.63;0.63;;;18.70;55.40;;;;;;5045883;28;45304;-72
2022/09/17 07:57:09;;;;;;;0.73;0.60;;;18.70;55.30;;;;;;5066513;28;45165;-73
2022/09/17 07:59:36;;;;;;;1.83;1.00;;;18.70;55.20;;;;;;5069893;28;45408;-72
2022/09/17 08:02:03;;;;;;;0.70;0.50;;;18.70;55.20;;;;;;5069749;28;45447;-72
2022/09/17 08:04:31;;;;;;;0.68;0.60;;;18.70;55.10;;;;;;5069525;28;46434;-72
2022/09/17 08:06:59;;;;;;;0.80;0.73;;;18.70;55.10;;;;;;5069757;28;45151;-72
2022/09/17 08:09:25;;;;;;;1.35;0.65;;;18.70;55.60;;;;;;5069648;28;45228;-72
2022/09/17 08:11:52;;;;;;;1.27;0.60;;;18.70;55.20;;;;;;5061905;28;45354;-72
2022/09/17 08:14:19;;;;;;;0.43;0.43;;;18.60;55.10;;;;;;5048977;28;46371;-72
2022/09/17 08:16:46;;;;;;;0.93;0.70;;;18.70;55.20;;;;;;5049344;28;45195;-72
2022/09/17 08:19:13;;;;;;;4.30;0.80;;;18.60;55.10;;;;;;5049279;28;45186;-72
2022/09/17 08:21:41;;;;;;;1.85;0.75;;;18.70;55.10;;;;;;5048833;28;45187;-72
2022/09/17 08:24:08;;;;;;;0.70;0.47;;;18.60;55.10;;;;;;5048917;28;45269;-72
2022/09/17 08:26:35;;;;;;;0.60;0.60;;;18.60;54.90;;;;;;5049124;28;45338;-72
2022/09/17 08:29:02;;;;;;;0.88;0.73;;;18.70;55.10;;;;;;5049230;28;45242;-73
2022/09/17 08:31:29;;;;;;;1.67;0.80;;;18.70;55.10;;;;;;5049280;28;45198;-72
2022/09/17 08:33:56;;;;;;;2.83;0.70;;;18.70;55.10;;;;;;5048838;28;46511;-72
2022/09/17 08:36:25;;;;;;;2.67;0.90;;;18.70;55.10;;;;;;5051789;28;45541;-73
2022/09/17 08:38:54;;;;;;;0.93;0.68;;;18.70;55.10;;;;;;5049058;28;45357;-73
2022/09/17 08:41:24;;;;;;;1.55;0.55;;;18.70;55.30;;;;;;5049114;28;45191;-72
2022/09/17 08:43:56;;;;;;;2.15;0.60;;;18.60;55.20;;;;;;5048570;28;45363;-73
2022/09/17 08:46:23;;;;;;;2.03;0.70;;;18.70;55.30;;;;;;5048724;28;45315;-73
2022/09/17 08:48:51;;;;;;;0.77;0.63;;;18.70;55.30;;;;;;5045957;28;45295;-72
2022/09/17 08:51:38;;;;;;;0.50;0.50;;;18.70;55.30;;;;;;5047095;28;45442;-73
2022/09/17 08:54:08;;;;;;;0.90;0.60;;;18.70;55.40;;;;;;5046530;28;46483;-73
2022/09/17 08:56:36;;;;;;;0.70;0.70;;;18.70;55.50;;;;;;5059280;28;45405;-73
2022/09/17 08:59:14;;;;;;;1.15;0.80;;;18.70;55.50;;;;;;5067523;28;45189;-73
2022/09/17 09:01:45;;;;;;;1.17;0.60;;;18.70;55.50;;;;;;5067924;28;45406;-73
2022/09/17 09:04:20;;;;;;;0.70;0.65;;;18.70;55.50;;;;;;5067443;28;46284;-73
2022/09/17 09:06:49;;;;;;;0.52;0.52;;;18.70;55.60;;;;;;5066604;28;45206;-73
2022/09/17 09:09:17;;;;;;;0.75;0.50;;;18.70;56.20;;;;;;5066783;28;45195;-74
2022/09/17 09:11:45;;;;;;;0.60;0.60;;;18.70;55.70;;;;;;5047210;28;45349;-73
2022/09/17 09:14:15;;;;;;;2.15;0.57;;;18.70;55.60;;;;;;5047212;28;47782;-73
2022/09/17 09:16:43;;;;;;;1.77;0.60;;;18.70;56.30;;;;;;5046932;28;45357;-73
2022/09/17 09:19:17;;;;;;;0.47;0.47;;;18.80;55.70;;;;;;5047294;28;45323;-73
2022/09/17 09:21:46;;;;;;;0.60;0.60;;;18.70;56.20;;;;;;5047457;28;45359;-73
2022/09/17 09:24:19;;;;;;;0.60;0.57;;;18.70;55.60;;;;;;5046620;28;46414;-73
2022/09/17 09:26:47;;;;;;;1.75;0.65;;;18.80;56.30;;;;;;5046994;28;45419;-73
2022/09/17 09:29:18;;;;;;;0.75;0.50;;;18.80;55.60;;;;;;5046444;28;45270;-73
2022/09/17 09:31:52;;;;;;;1.23;0.70;;;18.80;55.60;;;;;;5046459;28;45389;-73
2022/09/17 09:34:19;;;;;;;0.90;0.60;;;18.80;55.60;;;;;;5046101;28;46324;-73
2022/09/17 09:36:45;;;;;;;0.95;0.60;;;18.80;55.50;;;;;;5046702;28;45368;-73
2022/09/17 09:39:15;;;;;;;0.50;0.50;;;18.80;55.50;;;;;;5046966;28;45274;-74
2022/09/17 09:41:45;;;;;;;0.85;0.65;;;18.80;55.50;;;;;;5046787;28;45289;-72
2022/09/17 09:44:14;;;;;;;0.77;0.68;;;18.90;55.50;;;;;;5046422;28;47850;-73
2022/09/17 09:47:19;;;;;;;0.60;0.60;;;18.90;55.60;;;;;;5046425;28;45261;-73
2022/09/17 09:49:53;;;;;;;0.82;0.77;;;18.90;55.50;;;;;;5039877;28;45474;-73
2022/09/17 09:52:27;;;;;;;0.60;0.60;;;18.90;55.40;;;;;;5046837;28;45401;-74
2022/09/17 09:55:00;;;;;;;0.93;0.60;;;18.90;55.50;;;;;;5046399;28;46426;-73
2022/09/17 09:57:35;;;;;;;0.82;0.80;;;18.90;55.60;;;;;;5026280;28;45258;-73
2022/09/17 10:00:24;;;;;;;3.42;0.75;;;18.90;55.50;;;;;;5026514;28;45255;-74
2022/09/17 10:02:52;;;;;;;0.57;0.55;;;18.90;55.70;;;;;;5031413;28;45671;-74
2022/09/17 10:05:19;;;;;;;1.13;0.70;;;18.90;55.60;;;;;;5038565;28;46604;-73
2022/09/17 10:07:46;;;;;;;0.65;0.60;;;18.90;55.50;;;;;;5046157;28;45495;-74
2022/09/17 10:10:13;;;;;;;1.05;0.70;;;18.90;55.50;;;;;;5046129;28;45241;-73
2022/09/17 10:12:41;;;;;;;0.73;0.73;;;19.00;55.70;;;;;;5046600;28;45444;-73
2022/09/17 10:15:26;;;;;;;0.70;0.70;;;19.00;55.50;;;;;;5045789;28;46272;-74
2022/09/17 10:18:16;;;;;;;0.68;0.43;;;19.00;55.60;;;;;;5046055;28;45247;-73
2022/09/17 10:20:50;;;;;;;0.90;0.90;;;19.00;55.50;;;;;;5046421;28;45318;-73
2022/09/17 10:23:17;;;;;;;1.05;0.77;;;19.10;55.50;;;;;;5046149;28;45403;-74
2022/09/17 10:25:43;;;;;;;1.45;0.70;;;19.10;55.50;;;;;;5045490;28;46371;-73
2022/09/17 10:28:39;;;;;;;0.68;0.68;;;19.10;55.60;;;;;;5045902;28;45314;-74
2022/09/17 10:31:09;;;;;;;0.82;0.82;;;19.10;55.50;;;;;;5045682;28;45323;-74
2022/09/17 10:33:36;;;;;;;1.95;0.60;;;19.10;56.00;;;;;;5046058;28;45540;-74
2022/09/17 10:36:05;;;;;;;1.10;0.60;;;19.10;55.50;;;;;;5057120;28;46584;-74
2022/09/17 10:38:37;;;;;;;1.90;0.85;;;19.10;55.40;;;;;;5066276;28;45435;-74
2022/09/17 10:41:12;;;;;;;0.98;0.60;;;19.20;55.30;;;;;;5066276;28;45356;-74
2022/09/17 10:43:40;;;;;;;0.85;0.73;;;19.30;55.40;;;;;;5063669;28;45210;-74
2022/09/17 10:46:09;;;;;;;0.75;0.65;;;19.30;55.30;;;;;;5045632;28;45700;-73
2022/09/17 10:48:39;;;;;;;3.42;0.63;;;19.40;56.10;;;;;;5045434;28;45290;-73
2022/09/17 10:51:07;;;;;;;6.63;1.85;;;19.40;55.60;;;;;;5045707;28;45276;-74
2022/09/17 10:53:35;;;;;;;1.48;0.80;;;19.40;56.00;;;;;;5045633;28;45653;-73
2022/09/17 10:56:09;;;;;;;1.30;1.17;;;19.40;56.20;;;;;;5053824;28;46623;-72
2022/09/17 10:58:52;;;;;;;4.38;1.08;;;19.40;56.20;;;;;;5065749;28;45253;-74
2022/09/17 11:01:26;;;;;;;1.58;1.00;;;19.40;56.30;;;;;;5065716;28;45439;-73
2022/09/17 11:04:04;;;;;;;2.83;1.10;;;19.40;56.30;;;;;;5065480;28;45388;-73
2022/09/17 11:07:04;;;;;;;2.33;0.95;;;19.40;56.20;;;;;;5065273;28;46355;-72
2022/09/17 11:09:36;;;;;;;1.50;0.75;;;19.50;56.30;;;;;;5049588;28;45360;-73
2022/09/17 11:12:14;;;;;;;0.90;0.73;;;19.50;56.20;;;;;;5055826;28;45270;-73
2022/09/17 11:14:50;;;;;;;2.15;1.05;;;19.50;56.30;;;;;;5045667;28;45186;-73
2022/09/17 11:17:29;;;;;;;1.50;0.88;;;19.60;56.20;;;;;;5045018;28;47297;-73
2022/09/17 11:19:59;;;;;;;1.90;0.70;;;19.60;56.10;;;;;;5045378;28;45384;-72
2022/09/17 11:22:29;;;;;;;2.40;0.90;;;19.60;56.10;;;;;;5045032;28;45261;-73
2022/09/17 11:25:31;;;;;;;4.32;0.93;;;19.60;56.10;;;;;;5045171;28;45399;-74
2022/09/17 11:28:04;;;;;;;1.90;0.88;;;19.60;56.10;;;;;;5039443;28;46607;-74
2022/09/17 11:30:33;;;;;;;5.18;1.00;;;19.60;56.10;;;;;;5043586;28;45264;-73
2022/09/17 11:33:26;;;;;;;2.30;0.80;;;19.60;56.10;;;;;;5039278;28;45467;-73
2022/09/17 11:35:58;;;;;;;1.15;0.80;;;19.60;56.00;;;;;;5053168;28;45412;-72
2022/09/17 11:38:27;;;;;;;1.52;0.90;;;19.60;55.80;;;;;;5039197;28;46977;-73
2022/09/17 11:40:59;;;;;;;1.77;0.85;;;19.60;55.80;;;;;;5045834;28;45531;-73
2022/09/17 11:43:27;;;;;;;1.55;0.75;;;19.60;55.70;;;;;;5039617;28;45418;-73
2022/09/17 11:45:59;;;;;;;3.83;0.80;;;19.60;55.70;;;;;;5044884;28;45570;-73
2022/09/17 11:48:31;;;;;;;6.35;0.93;;;19.60;55.70;;;;;;5052421;28;45593;-73
2022/09/17 11:51:00;;;;;;;1.55;0.93;;;19.70;55.70;;;;;;5040919;28;45429;-74
2022/09/17 11:53:30;;;;;;;0.60;0.60;;;19.80;55.50;;;;;;5049730;28;45518;-73
2022/09/17 11:55:58;;;;;;;0.70;0.68;;;19.90;55.40;;;;;;5053211;28;45599;-74
2022/09/17 11:58:28;;;;;;;1.25;0.82;;;19.90;55.20;;;;;;5057804;28;45976;-72
2022/09/17 12:00:59;;;;;;;3.20;0.90;;;20.00;55.10;;;;;;5062354;28;45290;-72
2022/09/17 12:03:28;;;;;;;0.60;0.60;;;20.00;55.00;;;;;;5047358;28;45535;-73
2022/09/17 12:05:56;;;;;;;1.15;0.90;;;20.00;54.90;;;;;;5035115;28;45544;-73
2022/09/17 12:08:24;;;;;;;2.70;0.75;;;20.10;54.90;;;;;;5045237;28;46414;-72
2022/09/17 12:10:52;;;;;;;1.02;0.85;;;20.10;54.90;;;;;;5041546;28;45388;-72
2022/09/17 12:13:27;;;;;;;3.35;1.00;;;20.10;54.90;;;;;;5044609;28;45461;-72
2022/09/17 12:16:00;;;;;;;0.95;0.75;;;20.10;55.00;;;;;;5048670;28;45503;-72
2022/09/17 12:18:31;;;;;;;0.60;0.60;;;20.10;55.00;;;;;;5036892;28;45474;-73
2022/09/17 12:20:58;;;;;;;3.70;0.85;;;20.10;54.90;;;;;;5043287;28;45387;-74
2022/09/17 12:23:32;;;;;;;1.30;0.80;;;20.20;54.80;;;;;;5041484;28;45524;-73
2022/09/17 12:26:04;;;;;;;1.10;0.77;;;20.40;54.60;;;;;;5037586;28;45553;-72
2022/09/17 12:28:33;;;;;;;3.47;0.70;;;20.50;54.30;;;;;;5045122;28;46356;-72
2022/09/17 12:31:03;;;;;;;1.05;0.80;;;20.60;54.00;;;;;;5046681;28;45451;-72
2022/09/17 12:33:31;;;;;;;1.77;0.90;;;20.70;54.00;;;;;;5059503;28;45614;-72
2022/09/17 12:36:13;;;;;;;1.77;0.75;;;20.60;54.20;;;;;;5055486;28;45274;-74
2022/09/17 12:39:07;;;;;;;1.48;0.90;;;20.60;54.30;;;;;;5050506;28;45482;-74
2022/09/17 12:41:39;;;;;;;0.75;0.70;;;20.70;54.10;;;;;;5041600;28;47100;-74
2022/09/17 12:44:25;;;;;;;1.45;0.85;;;20.70;54.00;;;;;;5056772;28;45322;-73
2022/09/17 12:47:04;;;;;;;1.15;0.82;;;20.70;54.10;;;;;;5045509;28;45290;-73
2022/09/17 12:49:46;;;;;;;0.90;0.80;;;20.90;54.10;;;;;;5058303;28;45488;-73
2022/09/17 12:52:16;;;;;;;1.17;0.70;;;20.90;53.90;;;;;;5034368;28;45435;-72
2022/09/17 12:54:54;;;;;;;1.35;0.90;;;21.00;53.80;;;;;;5049298;28;45472;-72
2022/09/17 12:57:27;;;;;;;2.97;0.85;;;21.10;53.60;;;;;;5051406;28;45256;-71
2022/09/17 12:59:58;;;;;;;1.15;0.80;;;21.10;53.60;;;;;;5039772;28;46377;-71
2022/09/17 13:02:28;;;;;;;0.70;0.70;;;21.20;53.40;;;;;;5034596;28;45426;-74